Impacts METAR Board
IDs:

KPHX - Phoenix/Sky Harbor, AZ, US

Updated at: 0600 UTC 07 Dec 2022
Potential Impact None Slight Moderate High
Time 06/18Z 06/19Z 06/20Z 06/21Z 06/22Z 06/23Z 07/00Z 07/01Z 07/02Z 07/03Z 07/04Z 07/05Z 07/06Z
Temp63 65 65 66 66 66 66 65 61 60 61 59 58
Dewpt53 53 53 53 52 53 53 50 53 53 52 53 52
Altim29.97 29.95 29.93 29.92 29.91 29.91 29.92 29.93 29.94 29.96 29.97 29.98 30.00
VIS10 10 10 10 10 10 10 10 10 10 10 10 10
CIG70 60 190 47 190 200 200 200 200 250 -- -- 43
CoverBKNBKNBKNBKNBKNBKNBKNBKNBKNBKNFEWFEWBKN
FltCatVFRVFRVFRVFRVFRVFRVFRVFRVFRVFRVFRVFRVFR
WX--------------------------
WDir170160130230300270220260240250270250230
WSpd5 6 4 3 4 3 3 4 3 3 5 4 3
WGst-- -- -- -- -- -- -- -- -- -- -- -- --
Raw hourly METARs
KPHX 061751Z 17005KT 10SM BKN070 BKN190 17/12 A2997 RMK AO2 SLP141 T01720117 10172 20128 50013
KPHX 061851Z 16006KT 10SM BKN060 BKN190 18/12 A2995 RMK AO2 SLP134 T01830117
KPHX 061951Z 13004KT 10SM FEW060 BKN190 BKN250 18/12 A2993 RMK AO2 SLP125 T01830117
KPHX 062051Z 23003KT 10SM BKN047 BKN100 BKN190 BKN250 19/12 A2992 RMK AO2 SLP122 T01890117 56018
KPHX 062151Z 30004KT 10SM SCT047 SCT100 BKN190 BKN250 19/11 A2991 RMK AO2 SLP120 T01890111
KPHX 062251Z 27003KT 10SM SCT047 SCT100 BKN200 BKN250 19/12 A2991 RMK AO2 SLP121 T01890117
KPHX 062351Z 22003KT 10SM FEW035 SCT047 BKN200 BKN250 19/12 A2992 RMK AO2 SLP122 T01890117 10200 20172 55001
KPHX 070051Z 26004KT 10SM FEW035 FEW047 BKN200 BKN250 18/10 A2993 RMK AO2 SLP126 T01830100
KPHX 070151Z 24003KT 10SM FEW047 BKN200 BKN250 16/12 A2994 RMK AO2 SLP132 T01610117
KPHX 070251Z 25003KT 10SM SCT200 BKN250 16/12 A2996 RMK AO2 SLP137 T01560117 51013
KPHX 070351Z 27005KT 10SM FEW200 FEW250 16/11 A2997 RMK AO2 SLP141 T01610111
KPHX 070451Z 25004KT 10SM FEW200 FEW250 15/12 A2998 RMK AO2 SLP145 T01500117
KPHX 070551Z 23003KT 10SM BKN043 BKN050 BKN200 14/11 A3000 RMK AO2 SLP150 T01440111 10189 20139 53015



Page loaded:  06:42 UTC  |   10:42 PM Pacific  |   11:42 PM Mountain  |   12:42 AM Central  |   01:42 AM Eastern

 

ADVISORIES

FORECASTS

FORECASTS

OBSERVATIONS

USER TOOLS

ABOUT US